Time;durP1;ratioP1;P1;durP2;ratioP2;P2;SDS_P1;SDS_P2;PMS_P1;PMS_P2;Temp;Humidity;BMP_temperature;BMP_pressure;BME280_temperature;BME280_humidity;BME280_pressure;Samples;Min_cycle;Max_cycle;Signal;HPM_P1;HPM_P2
2021/01/01 00:01:03;;;;;;;498.87;316.00;;;;;;;;;;5061390;28;20226;-76
2021/01/01 00:03:28;;;;;;;467.60;275.27;;;;;;;;;;5068948;28;20587;-76
2021/01/01 00:05:53;;;;;;;464.23;269.23;;;;;;;;;;5069123;28;20276;-76
2021/01/01 00:08:19;;;;;;;428.13;248.57;;;;;;;;;;5069998;28;20563;-76
2021/01/01 00:10:44;;;;;;;473.50;284.30;;;;;;;;;;5071175;28;20227;-76
2021/01/01 00:13:09;;;;;;;433.53;247.73;;;;;;;;;;5069381;28;20693;-76
2021/01/01 00:15:35;;;;;;;431.57;251.93;;;;;;;;;;5061449;28;20662;-76
2021/01/01 00:18:00;;;;;;;415.57;237.80;;;;;;;;;;5067785;28;20203;-76
2021/01/01 00:20:25;;;;;;;416.20;236.70;;;;;;;;;;5065214;28;20231;-76
2021/01/01 00:22:50;;;;;;;372.17;206.33;;;;;;;;;;5070716;28;20196;-76
2021/01/01 00:25:15;;;;;;;290.07;154.50;;;;;;;;;;5067631;28;20184;-75
2021/01/01 00:27:41;;;;;;;282.40;150.50;;;;;;;;;;5058227;28;20202;-75
2021/01/01 00:30:06;;;;;;;282.00;147.43;;;;;;;;;;5069128;28;20256;-75
2021/01/01 00:32:32;;;;;;;292.37;152.97;;;;;;;;;;5060067;28;20269;-76
2021/01/01 00:34:57;;;;;;;267.80;144.83;;;;;;;;;;5068477;28;20181;-75
2021/01/01 00:37:22;;;;;;;257.20;139.67;;;;;;;;;;5067249;28;20727;-75
2021/01/01 00:39:48;;;;;;;302.80;160.33;;;;;;;;;;5064778;28;20215;-75
2021/01/01 00:42:13;;;;;;;288.33;156.90;;;;;;;;;;5069800;28;20215;-75
2021/01/01 00:44:39;;;;;;;291.37;156.17;;;;;;;;;;5062330;28;20308;-75
2021/01/01 00:47:04;;;;;;;291.27;155.53;;;;;;;;;;5063511;28;20196;-75
2021/01/01 00:49:30;;;;;;;293.60;148.80;;;;;;;;;;5067965;28;20186;-75
2021/01/01 00:52:00;;;;;;;280.27;143.87;;;;;;;;;;5070078;28;20177;-75
2021/01/01 00:54:26;;;;;;;289.10;144.00;;;;;;;;;;5062917;28;20205;-75
2021/01/01 00:56:51;;;;;;;268.37;143.17;;;;;;;;;;5065871;28;20475;-76
2021/01/01 00:59:16;;;;;;;278.53;139.27;;;;;;;;;;5063905;28;20173;-75
2021/01/01 01:01:41;;;;;;;306.90;146.60;;;;;;;;;;5057579;28;20185;-75
2021/01/01 01:04:06;;;;;;;286.97;138.83;;;;;;;;;;5066331;28;20196;-75
2021/01/01 01:06:32;;;;;;;282.95;142.45;;;;;;;;;;5054531;28;20173;-76
2021/01/01 01:08:57;;;;;;;283.83;140.27;;;;;;;;;;5066445;28;20173;-76
2021/01/01 01:11:26;;;;;;;277.53;140.83;;;;;;;;;;5059241;28;20181;-76
2021/01/01 01:13:55;;;;;;;286.00;140.83;;;;;;;;;;5056893;28;20260;-75
2021/01/01 01:16:21;;;;;;;313.33;147.63;;;;;;;;;;5066061;28;20185;-75
2021/01/01 01:18:47;;;;;;;302.87;142.27;;;;;;;;;;5067773;28;20681;-75
2021/01/01 01:21:12;;;;;;;283.37;138.20;;;;;;;;;;5060426;28;20174;-76
2021/01/01 01:23:37;;;;;;;286.07;135.90;;;;;;;;;;5064542;28;20279;-75
2021/01/01 01:26:02;;;;;;;279.50;134.43;;;;;;;;;;5062386;28;20177;-75
2021/01/01 01:28:27;;;;;;;267.23;130.20;;;;;;;;;;5063872;28;20196;-75
2021/01/01 01:30:53;;;;;;;280.40;132.90;;;;;;;;;;5061521;28;20279;-75
2021/01/01 01:33:18;;;;;;;291.00;139.43;;;;;;;;;;5062441;28;20203;-76
2021/01/01 01:35:43;;;;;;;296.77;135.80;;;;;;;;;;5065481;28;20181;-76
2021/01/01 01:38:08;;;;;;;308.90;142.00;;;;;;;;;;5068710;28;20305;-76
2021/01/01 01:40:33;;;;;;;297.47;139.27;;;;;;;;;;5058282;28;20177;-75
2021/01/01 01:42:59;;;;;;;326.57;142.80;;;;;;;;;;5062601;28;20212;-75
2021/01/01 01:45:24;;;;;;;310.10;136.80;;;;;;;;;;5065151;28;20168;-75
2021/01/01 01:47:49;;;;;;;269.67;122.93;;;;;;;;;;5060918;28;20193;-75
2021/01/01 01:50:14;;;;;;;212.83;108.57;;;;;;;;;;5068109;28;20215;-75
2021/01/01 01:52:40;;;;;;;220.27;106.97;;;;;;;;;;5060239;28;20181;-75
2021/01/01 01:55:05;;;;;;;201.73;103.07;;;;;;;;;;5064949;28;20207;-75
2021/01/01 01:57:32;;;;;;;217.13;103.97;;;;;;;;;;5063405;28;20604;-75
2021/01/01 02:00:05;;;;;;;221.73;102.87;;;;;;;;;;5072857;28;20509;-75
2021/01/01 02:02:30;;;;;;;233.13;110.97;;;;;;;;;;5069768;28;20176;-75
2021/01/01 02:04:56;;;;;;;205.40;107.13;;;;;;;;;;5072520;28;20177;-75
2021/01/01 02:07:21;;;;;;;212.60;103.30;;;;;;;;;;5069937;28;20649;-75
2021/01/01 02:09:46;;;;;;;197.00;101.53;;;;;;;;;;5072919;28;20177;-75
2021/01/01 02:12:14;;;;;;;234.40;109.50;;;;;;;;;;5068151;28;20230;-75
2021/01/01 02:14:39;;;;;;;200.87;103.20;;;;;;;;;;5063734;28;20209;-75
2021/01/01 02:17:05;;;;;;;225.23;108.80;;;;;;;;;;5071474;28;20220;-76
2021/01/01 02:19:30;;;;;;;244.13;115.07;;;;;;;;;;5066120;28;20310;-75
2021/01/01 02:21:59;;;;;;;221.40;107.77;;;;;;;;;;5064385;28;20662;-75
2021/01/01 02:24:24;;;;;;;278.67;121.57;;;;;;;;;;5071079;28;20185;-75
2021/01/01 02:26:49;;;;;;;287.47;130.43;;;;;;;;;;5064915;28;20187;-75
2021/01/01 02:29:15;;;;;;;306.53;137.70;;;;;;;;;;5066087;28;20185;-75
2021/01/01 02:31:40;;;;;;;335.50;149.97;;;;;;;;;;5064134;28;20180;-75
2021/01/01 02:34:05;;;;;;;345.67;150.37;;;;;;;;;;5067730;28;20229;-75
2021/01/01 02:36:30;;;;;;;383.70;158.77;;;;;;;;;;5067105;28;20173;-75
2021/01/01 02:38:55;;;;;;;367.47;160.30;;;;;;;;;;5074217;28;20243;-75
2021/01/01 02:41:21;;;;;;;364.53;164.07;;;;;;;;;;5073532;28;20164;-75
2021/01/01 02:43:46;;;;;;;341.57;155.10;;;;;;;;;;5073809;28;20232;-75
2021/01/01 02:46:11;;;;;;;363.10;155.23;;;;;;;;;;5067398;28;20227;-75
2021/01/01 02:48:36;;;;;;;367.60;160.50;;;;;;;;;;5070242;28;20180;-75
2021/01/01 02:51:01;;;;;;;365.90;155.80;;;;;;;;;;5064123;28;20199;-75
2021/01/01 02:53:28;;;;;;;339.83;148.30;;;;;;;;;;5070934;28;20253;-76
2021/01/01 02:55:53;;;;;;;354.13;151.03;;;;;;;;;;5068073;28;20587;-76
2021/01/01 02:58:18;;;;;;;361.63;148.77;;;;;;;;;;5072076;28;20200;-76
2021/01/01 03:00:46;;;;;;;334.50;146.03;;;;;;;;;;5068607;28;20366;-77
2021/01/01 03:03:12;;;;;;;322.57;141.60;;;;;;;;;;5069248;28;20618;-76
2021/01/01 03:05:37;;;;;;;324.40;144.07;;;;;;;;;;5065226;28;20382;-76
2021/01/01 03:08:02;;;;;;;319.67;136.23;;;;;;;;;;5071108;28;20181;-76
2021/01/01 03:10:28;;;;;;;299.97;127.13;;;;;;;;;;5069089;28;20184;-76
2021/01/01 03:12:53;;;;;;;285.70;121.13;;;;;;;;;;5073080;28;20211;-75
2021/01/01 03:15:18;;;;;;;271.30;121.67;;;;;;;;;;5076677;28;20240;-76
2021/01/01 03:17:43;;;;;;;254.43;119.23;;;;;;;;;;5072390;28;20198;-76
2021/01/01 03:20:09;;;;;;;265.60;116.47;;;;;;;;;;5063184;28;20178;-76
2021/01/01 03:22:34;;;;;;;255.90;114.83;;;;;;;;;;5060806;28;20204;-76
2021/01/01 03:24:59;;;;;;;257.87;114.30;;;;;;;;;;5072944;28;20682;-75
2021/01/01 03:27:24;;;;;;;227.43;108.70;;;;;;;;;;5068259;28;20205;-76
2021/01/01 03:29:49;;;;;;;225.37;103.23;;;;;;;;;;5067708;28;20268;-76
2021/01/01 03:32:15;;;;;;;221.27;106.23;;;;;;;;;;5066934;28;20181;-76
2021/01/01 03:34:40;;;;;;;238.73;102.20;;;;;;;;;;5068218;28;20228;-76
2021/01/01 03:37:05;;;;;;;247.77;109.30;;;;;;;;;;5069945;28;20181;-76
2021/01/01 03:39:30;;;;;;;230.00;108.20;;;;;;;;;;5063534;28;20223;-75
2021/01/01 03:41:56;;;;;;;230.37;102.73;;;;;;;;;;5072540;28;20177;-76
2021/01/01 03:44:21;;;;;;;224.17;105.50;;;;;;;;;;5072508;28;20200;-76
2021/01/01 03:46:46;;;;;;;230.77;100.17;;;;;;;;;;5073101;28;20187;-76
2021/01/01 03:49:11;;;;;;;229.47;102.13;;;;;;;;;;5074315;28;20173;-76
2021/01/01 03:51:36;;;;;;;251.33;106.47;;;;;;;;;;5082392;28;20181;-76
2021/01/01 03:54:02;;;;;;;229.80;99.63;;;;;;;;;;5090070;28;20623;-76
2021/01/01 03:56:27;;;;;;;244.40;102.00;;;;;;;;;;5078775;28;20181;-76
2021/01/01 03:58:52;;;;;;;236.80;96.30;;;;;;;;;;5084372;28;20201;-76
2021/01/01 04:01:17;;;;;;;219.17;93.23;;;;;;;;;;5084910;28;20527;-76
2021/01/01 04:03:43;;;;;;;210.70;92.03;;;;;;;;;;5087632;28;20200;-76
2021/01/01 04:06:08;;;;;;;203.43;89.13;;;;;;;;;;5081527;28;20188;-76
2021/01/01 04:08:33;;;;;;;198.33;91.53;;;;;;;;;;5086202;28;20165;-76
2021/01/01 04:10:58;;;;;;;194.87;84.80;;;;;;;;;;5082562;28;20183;-77
2021/01/01 04:13:23;;;;;;;215.97;87.90;;;;;;;;;;5068746;28;20197;-75
2021/01/01 04:15:49;;;;;;;201.90;86.00;;;;;;;;;;5071190;28;20682;-75
2021/01/01 04:18:14;;;;;;;207.33;86.60;;;;;;;;;;5071011;28;20269;-76
2021/01/01 04:20:39;;;;;;;186.23;82.83;;;;;;;;;;5071580;28;20268;-76
2021/01/01 04:23:04;;;;;;;196.23;85.77;;;;;;;;;;5066430;28;20205;-76
2021/01/01 04:25:30;;;;;;;201.50;86.13;;;;;;;;;;5067673;28;20185;-76
2021/01/01 04:27:55;;;;;;;196.40;88.77;;;;;;;;;;5065918;28;20183;-76
2021/01/01 04:30:20;;;;;;;194.60;85.13;;;;;;;;;;5071432;28;20185;-76
2021/01/01 04:32:45;;;;;;;197.97;82.97;;;;;;;;;;5070948;28;20180;-76
2021/01/01 04:35:11;;;;;;;196.33;82.50;;;;;;;;;;5065078;28;20191;-76
2021/01/01 04:37:36;;;;;;;177.63;81.50;;;;;;;;;;5063943;28;20714;-76
2021/01/01 04:40:01;;;;;;;186.40;80.17;;;;;;;;;;5064188;28;20785;-76
2021/01/01 04:42:27;;;;;;;179.63;76.73;;;;;;;;;;5066364;28;20178;-76
2021/01/01 04:44:53;;;;;;;187.30;81.30;;;;;;;;;;5063214;28;20193;-76
2021/01/01 04:47:20;;;;;;;184.23;75.90;;;;;;;;;;5059924;28;20256;-76
2021/01/01 04:49:45;;;;;;;162.10;75.90;;;;;;;;;;5065702;28;20278;-76
2021/01/01 04:52:10;;;;;;;184.37;82.93;;;;;;;;;;5064181;28;20665;-76
2021/01/01 04:54:35;;;;;;;180.70;76.10;;;;;;;;;;5067819;28;20211;-76
2021/01/01 04:57:01;;;;;;;187.27;81.47;;;;;;;;;;5064001;28;20263;-76
2021/01/01 04:59:26;;;;;;;189.20;79.17;;;;;;;;;;5066180;28;20169;-76
2021/01/01 05:01:52;;;;;;;166.37;74.47;;;;;;;;;;5060939;28;20182;-76
2021/01/01 05:04:17;;;;;;;177.03;79.20;;;;;;;;;;5068699;28;20288;-75
2021/01/01 05:06:42;;;;;;;179.70;76.27;;;;;;;;;;5065986;28;20564;-76
2021/01/01 05:09:08;;;;;;;178.53;74.40;;;;;;;;;;5056730;28;20181;-76
2021/01/01 05:11:33;;;;;;;167.80;71.37;;;;;;;;;;5067407;28;20177;-76
2021/01/01 05:13:59;;;;;;;168.13;74.03;;;;;;;;;;5062921;28;20216;-76
2021/01/01 05:16:25;;;;;;;154.67;71.87;;;;;;;;;;5068282;28;20580;-76
2021/01/01 05:18:51;;;;;;;134.00;61.97;;;;;;;;;;5065153;28;20208;-76
2021/01/01 05:21:20;;;;;;;121.97;55.57;;;;;;;;;;5054664;28;20178;-76
2021/01/01 05:23:48;;;;;;;109.90;54.40;;;;;;;;;;5064263;28;20269;-76
2021/01/01 05:26:14;;;;;;;112.03;51.20;;;;;;;;;;5068441;28;20234;-76
2021/01/01 05:28:48;;;;;;;103.47;49.50;;;;;;;;;;5060441;28;20199;-76
2021/01/01 05:31:14;;;;;;;89.20;44.97;;;;;;;;;;5060928;28;20193;-75
2021/01/01 05:33:43;;;;;;;90.43;41.77;;;;;;;;;;5067913;28;20212;-75
2021/01/01 05:36:09;;;;;;;84.07;40.27;;;;;;;;;;5066402;28;20185;-75
2021/01/01 05:38:37;;;;;;;74.67;37.13;;;;;;;;;;5064218;28;20223;-75
2021/01/01 05:41:02;;;;;;;75.47;36.53;;;;;;;;;;5064496;28;20598;-76
2021/01/01 05:43:27;;;;;;;69.80;34.07;;;;;;;;;;5063298;28;20296;-75
2021/01/01 05:46:05;;;;;;;76.47;33.67;;;;;;;;;;5063506;28;20219;-75
2021/01/01 05:48:31;;;;;;;55.93;29.83;;;;;;;;;;5064874;28;20338;-75
2021/01/01 05:51:04;;;;;;;52.93;28.20;;;;;;;;;;5069569;28;20559;-76
2021/01/01 05:53:29;;;;;;;52.23;27.17;;;;;;;;;;5066415;28;20280;-75
2021/01/01 05:56:05;;;;;;;56.50;25.97;;;;;;;;;;5067269;28;20267;-75
2021/01/01 05:58:30;;;;;;;49.70;24.73;;;;;;;;;;5061806;28;20238;-75
2021/01/01 06:00:57;;;;;;;54.17;27.57;;;;;;;;;;5063095;28;20190;-75
2021/01/01 06:03:23;;;;;;;50.73;25.30;;;;;;;;;;5062494;28;20622;-76
2021/01/01 06:05:53;;;;;;;47.43;22.87;;;;;;;;;;5063348;28;20189;-76
2021/01/01 06:08:18;;;;;;;50.70;24.60;;;;;;;;;;5066373;28;20263;-75
2021/01/01 06:10:48;;;;;;;53.63;25.30;;;;;;;;;;5065750;28;20622;-76
2021/01/01 06:13:17;;;;;;;41.77;21.60;;;;;;;;;;5064917;28;20661;-75
2021/01/01 06:15:42;;;;;;;53.93;24.13;;;;;;;;;;5064192;28;20670;-75
2021/01/01 06:18:14;;;;;;;43.63;22.87;;;;;;;;;;5063675;28;20223;-75
2021/01/01 06:20:41;;;;;;;44.10;22.00;;;;;;;;;;5066141;28;20181;-75
2021/01/01 06:23:06;;;;;;;42.87;21.73;;;;;;;;;;5064386;28;20222;-76
2021/01/01 06:25:33;;;;;;;41.70;21.13;;;;;;;;;;5068770;28;20534;-76
2021/01/01 06:27:58;;;;;;;45.30;21.13;;;;;;;;;;5065774;28;20193;-76
2021/01/01 06:30:24;;;;;;;42.50;20.67;;;;;;;;;;5060559;28;20602;-76
2021/01/01 06:32:50;;;;;;;35.20;19.50;;;;;;;;;;5065706;28;20173;-76
2021/01/01 06:35:20;;;;;;;36.23;18.93;;;;;;;;;;5068071;28;20181;-76
2021/01/01 06:37:47;;;;;;;31.60;17.43;;;;;;;;;;5069289;28;20331;-75
2021/01/01 06:40:31;;;;;;;34.27;17.73;;;;;;;;;;5067580;28;21105;-75
2021/01/01 06:42:58;;;;;;;33.33;16.60;;;;;;;;;;5067673;28;20594;-75
2021/01/01 06:45:29;;;;;;;30.97;16.10;;;;;;;;;;5070984;28;20178;-75
2021/01/01 06:47:55;;;;;;;29.20;17.33;;;;;;;;;;5074545;28;20599;-75
2021/01/01 06:50:30;;;;;;;33.70;16.30;;;;;;;;;;5072625;28;20223;-76
2021/01/01 06:53:08;;;;;;;39.13;16.57;;;;;;;;;;5065871;28;20204;-76
2021/01/01 06:55:34;;;;;;;29.80;15.80;;;;;;;;;;5066880;28;20173;-76
2021/01/01 06:58:00;;;;;;;30.17;14.47;;;;;;;;;;5089252;28;20683;-76
2021/01/01 07:00:43;;;;;;;29.77;13.97;;;;;;;;;;5067350;28;20204;-76
2021/01/01 07:03:24;;;;;;;28.97;15.23;;;;;;;;;;5068836;28;20193;-76
2021/01/01 07:05:49;;;;;;;24.20;13.80;;;;;;;;;;5074802;28;20180;-75
2021/01/01 07:08:34;;;;;;;26.60;13.50;;;;;;;;;;5072008;28;20722;-76
2021/01/01 07:10:59;;;;;;;25.23;13.17;;;;;;;;;;5061902;28;20189;-76
2021/01/01 07:13:38;;;;;;;27.07;14.17;;;;;;;;;;5067033;28;20740;-76
2021/01/01 07:16:04;;;;;;;27.87;15.50;;;;;;;;;;5063487;28;20195;-75
2021/01/01 07:18:29;;;;;;;27.97;13.07;;;;;;;;;;5069438;28;20231;-76
2021/01/01 07:20:58;;;;;;;23.50;13.13;;;;;;;;;;5070456;28;20246;-76
2021/01/01 07:23:23;;;;;;;23.97;13.60;;;;;;;;;;5064577;28;20212;-76
2021/01/01 07:25:49;;;;;;;23.67;13.60;;;;;;;;;;5068272;28;20177;-76
2021/01/01 07:28:15;;;;;;;21.30;12.70;;;;;;;;;;5067124;28;20311;-76
2021/01/01 07:30:41;;;;;;;22.87;13.17;;;;;;;;;;5072135;28;20587;-76
2021/01/01 07:33:06;;;;;;;29.03;14.33;;;;;;;;;;5070075;28;20208;-76
2021/01/01 07:35:31;;;;;;;22.43;13.63;;;;;;;;;;5065712;28;20227;-76
2021/01/01 07:37:58;;;;;;;26.63;13.33;;;;;;;;;;5064553;28;20210;-76
2021/01/01 07:40:23;;;;;;;27.97;14.80;;;;;;;;;;5062421;28;20691;-76
2021/01/01 07:42:49;;;;;;;24.90;14.53;;;;;;;;;;5066279;28;20202;-76
2021/01/01 07:45:15;;;;;;;22.17;13.33;;;;;;;;;;5061239;28;20178;-76
2021/01/01 07:47:44;;;;;;;30.47;14.23;;;;;;;;;;5066049;28;20181;-76
2021/01/01 07:50:13;;;;;;;25.83;14.37;;;;;;;;;;5068040;28;20438;-75
2021/01/01 07:52:38;;;;;;;27.57;14.20;;;;;;;;;;5058674;28;20204;-76
2021/01/01 07:55:03;;;;;;;21.73;13.60;;;;;;;;;;5070412;28;20207;-76
2021/01/01 07:57:29;;;;;;;24.57;15.20;;;;;;;;;;5066046;28;20725;-76
2021/01/01 07:59:58;;;;;;;25.57;14.40;;;;;;;;;;5064938;28;20658;-76
2021/01/01 08:02:23;;;;;;;26.93;13.43;;;;;;;;;;5067095;28;20178;-76
2021/01/01 08:04:50;;;;;;;26.83;13.30;;;;;;;;;;5064512;28;20212;-76
2021/01/01 08:07:22;;;;;;;21.60;12.57;;;;;;;;;;5064318;28;20212;-76
2021/01/01 08:09:47;;;;;;;23.30;12.70;;;;;;;;;;5070055;28;20211;-76
2021/01/01 08:12:12;;;;;;;21.37;12.03;;;;;;;;;;5069054;28;20607;-76
2021/01/01 08:14:37;;;;;;;21.07;12.37;;;;;;;;;;5065401;28;20200;-76
2021/01/01 08:17:29;;;;;;;21.43;11.77;;;;;;;;;;5064454;28;20184;-76
2021/01/01 08:19:57;;;;;;;22.53;12.37;;;;;;;;;;5059872;28;20189;-76
2021/01/01 08:22:27;;;;;;;18.63;11.97;;;;;;;;;;5068475;28;20579;-76
2021/01/01 08:24:54;;;;;;;19.83;10.37;;;;;;;;;;5065421;28;20205;-76
2021/01/01 08:27:21;;;;;;;18.37;10.20;;;;;;;;;;5059198;28;20185;-76
2021/01/01 08:29:47;;;;;;;19.43;10.40;;;;;;;;;;5066254;28;20222;-76
2021/01/01 08:32:12;;;;;;;16.27;9.97;;;;;;;;;;5064802;28;20189;-76
2021/01/01 08:34:38;;;;;;;15.37;10.07;;;;;;;;;;5065795;28;20254;-76
2021/01/01 08:37:16;;;;;;;17.43;9.33;;;;;;;;;;5062469;28;20180;-76
2021/01/01 08:39:41;;;;;;;19.80;9.83;;;;;;;;;;5062124;28;20232;-76
2021/01/01 08:42:07;;;;;;;17.53;9.50;;;;;;;;;;5064926;28;20597;-76
2021/01/01 08:44:35;;;;;;;15.40;9.80;;;;;;;;;;5062374;28;20228;-76
2021/01/01 08:47:02;;;;;;;16.13;9.93;;;;;;;;;;5067238;28;20173;-76
2021/01/01 08:49:31;;;;;;;20.70;9.30;;;;;;;;;;5065244;28;20603;-76
2021/01/01 08:51:58;;;;;;;17.10;8.80;;;;;;;;;;5054632;28;20178;-76
2021/01/01 08:54:24;;;;;;;15.77;8.67;;;;;;;;;;5066453;28;20558;-76
2021/01/01 08:56:56;;;;;;;16.73;9.27;;;;;;;;;;5064184;28;20180;-76
2021/01/01 08:59:21;;;;;;;15.67;9.30;;;;;;;;;;5066722;28;20222;-76
2021/01/01 09:01:46;;;;;;;13.30;8.77;;;;;;;;;;5068225;28;20552;-76
2021/01/01 09:04:12;;;;;;;20.10;9.87;;;;;;;;;;5060368;28;20197;-76
2021/01/01 09:06:37;;;;;;;15.03;8.73;;;;;;;;;;5062821;28;20181;-76
2021/01/01 09:12:19;;;;;;;15.87;8.87;;;;;;;;;;5062813;28;20255;-76
2021/01/01 09:15:10;;;;;;;16.20;9.57;;;;;;;;;;5065232;28;20208;-76
2021/01/01 09:17:36;;;;;;;14.23;8.70;;;;;;;;;;5068022;28;20208;-76
2021/01/01 09:20:10;;;;;;;15.33;8.33;;;;;;;;;;5059342;28;20172;-75
2021/01/01 09:22:37;;;;;;;19.13;10.03;;;;;;;;;;5066751;28;20184;-76
2021/01/01 09:25:22;;;;;;;16.40;9.20;;;;;;;;;;5066339;28;20555;-75
2021/01/01 09:27:47;;;;;;;21.63;10.13;;;;;;;;;;5058085;28;20180;-76
2021/01/01 09:30:17;;;;;;;16.33;9.03;;;;;;;;;;5067031;28;20315;-75
2021/01/01 09:32:45;;;;;;;14.73;8.93;;;;;;;;;;5065130;28;20184;-76
2021/01/01 09:35:11;;;;;;;15.83;10.60;;;;;;;;;;5065001;28;20725;-75
2021/01/01 09:37:36;;;;;;;19.37;9.53;;;;;;;;;;5060644;28;20185;-76
2021/01/01 09:40:01;;;;;;;15.10;9.30;;;;;;;;;;5063427;28;20195;-75
2021/01/01 09:42:26;;;;;;;23.47;9.40;;;;;;;;;;5064491;28;20200;-75
2021/01/01 09:44:52;;;;;;;12.85;8.45;;;;;;;;;;5065657;28;20199;-75
2021/01/01 09:47:17;;;;;;;12.77;8.43;;;;;;;;;;5064444;28;20192;-76
2021/01/01 09:49:42;;;;;;;14.13;8.10;;;;;;;;;;5064508;28;20269;-75
2021/01/01 09:52:07;;;;;;;14.80;8.00;;;;;;;;;;5061791;28;20188;-76
2021/01/01 09:54:32;;;;;;;11.07;7.87;;;;;;;;;;5066778;28;20272;-76
2021/01/01 09:56:59;;;;;;;9.33;7.27;;;;;;;;;;5064657;28;20186;-76
2021/01/01 09:59:24;;;;;;;13.03;8.17;;;;;;;;;;5057391;28;20284;-76
2021/01/01 10:01:50;;;;;;;12.30;7.63;;;;;;;;;;5058936;28;20276;-75
2021/01/01 10:04:15;;;;;;;11.23;7.47;;;;;;;;;;5067602;28;20207;-76
2021/01/01 10:06:40;;;;;;;13.57;8.13;;;;;;;;;;5066203;28;20646;-76
2021/01/01 10:09:05;;;;;;;18.07;8.90;;;;;;;;;;5068017;28;20173;-76
2021/01/01 10:11:30;;;;;;;17.23;8.75;;;;;;;;;;5062057;28;20186;-76
2021/01/01 10:13:55;;;;;;;13.03;7.80;;;;;;;;;;5064198;28;20213;-76
2021/01/01 10:16:21;;;;;;;11.27;7.88;;;;;;;;;;5072212;28;20246;-76
2021/01/01 10:18:46;;;;;;;10.57;7.17;;;;;;;;;;5068735;28;20216;-76
2021/01/01 10:21:13;;;;;;;13.93;8.23;;;;;;;;;;5067289;28;20220;-76
2021/01/01 10:23:40;;;;;;;13.37;7.80;;;;;;;;;;5062436;28;20205;-75
2021/01/01 10:26:08;;;;;;;12.17;8.43;;;;;;;;;;5069002;28;20184;-76
2021/01/01 10:28:33;;;;;;;13.43;7.67;;;;;;;;;;5072292;28;20256;-76
2021/01/01 10:30:59;;;;;;;13.63;8.33;;;;;;;;;;5072500;28;20224;-76
2021/01/01 10:33:24;;;;;;;11.73;7.70;;;;;;;;;;5072849;28;20204;-76
2021/01/01 10:35:49;;;;;;;12.23;7.40;;;;;;;;;;5068943;28;20211;-75
2021/01/01 10:38:15;;;;;;;10.83;7.83;;;;;;;;;;5068741;28;20247;-75
2021/01/01 10:40:40;;;;;;;12.33;7.23;;;;;;;;;;5064225;28;20204;-76
2021/01/01 10:43:05;;;;;;;11.23;7.37;;;;;;;;;;5072851;28;20209;-76
2021/01/01 10:45:30;;;;;;;10.50;7.80;;;;;;;;;;5073012;28;20269;-75
2021/01/01 10:47:55;;;;;;;10.07;6.70;;;;;;;;;;5076820;28;20185;-75
2021/01/01 10:50:21;;;;;;;13.27;8.83;;;;;;;;;;5077185;28;20181;-75
2021/01/01 10:52:47;;;;;;;13.77;9.40;;;;;;;;;;5068635;28;20694;-76
2021/01/01 10:55:12;;;;;;;10.23;8.77;;;;;;;;;;5068641;28;20234;-75
2021/01/01 10:57:37;;;;;;;11.73;7.37;;;;;;;;;;5067780;28;20193;-76
2021/01/01 11:00:05;;;;;;;9.77;7.60;;;;;;;;;;5066166;28;20177;-75
2021/01/01 11:02:30;;;;;;;9.40;5.97;;;;;;;;;;5072388;28;20242;-75
2021/01/01 11:04:55;;;;;;;8.90;6.03;;;;;;;;;;5066466;28;20561;-75
2021/01/01 11:07:20;;;;;;;8.00;6.00;;;;;;;;;;5072470;28;20169;-76
2021/01/01 11:09:45;;;;;;;9.13;6.23;;;;;;;;;;5070578;28;20315;-75
2021/01/01 11:12:11;;;;;;;10.77;6.60;;;;;;;;;;5069975;28;20248;-76
2021/01/01 12:20:47;;;;;;;10.70;7.17;;;;;;;;;;5059035;28;20171;-77
2021/01/01 12:23:19;;;;;;;11.30;7.53;;;;;;;;;;5060998;28;20219;-77
2021/01/01 12:25:45;;;;;;;12.53;7.77;;;;;;;;;;5064859;28;20725;-76
2021/01/01 12:28:11;;;;;;;20.90;9.17;;;;;;;;;;5067275;28;20184;-77
2021/01/01 12:30:36;;;;;;;13.10;8.33;;;;;;;;;;5059895;28;20184;-77
2021/01/01 12:33:02;;;;;;;16.60;8.70;;;;;;;;;;5063265;28;20196;-76
2021/01/01 12:35:27;;;;;;;11.67;8.30;;;;;;;;;;5070783;28;20614;-76
2021/01/01 12:38:00;;;;;;;12.70;8.03;;;;;;;;;;5065029;28;20188;-76
2021/01/01 12:40:25;;;;;;;12.93;7.37;;;;;;;;;;5066907;28;20188;-77
2021/01/01 12:42:50;;;;;;;12.03;7.10;;;;;;;;;;5062795;28;20292;-77
2021/01/01 12:45:16;;;;;;;12.40;7.13;;;;;;;;;;5062940;28;20165;-76
2021/01/01 12:47:41;;;;;;;11.13;7.27;;;;;;;;;;5062762;28;20313;-76
2021/01/01 12:50:06;;;;;;;8.57;6.83;;;;;;;;;;5063212;28;20265;-77
2021/01/01 12:52:31;;;;;;;13.27;6.57;;;;;;;;;;5066283;28;20180;-76
2021/01/01 12:54:57;;;;;;;9.73;7.47;;;;;;;;;;5067496;28;20191;-76
2021/01/01 12:57:22;;;;;;;11.80;7.03;;;;;;;;;;5067663;28;20260;-76
2021/01/01 12:59:47;;;;;;;12.87;8.03;;;;;;;;;;5063560;28;20642;-77
2021/01/01 13:02:12;;;;;;;12.33;8.63;;;;;;;;;;5062218;28;20174;-77
2021/01/01 13:04:37;;;;;;;16.10;8.60;;;;;;;;;;5064060;28;20274;-77
2021/01/01 13:07:03;;;;;;;11.90;8.13;;;;;;;;;;5066820;28;20622;-76
2021/01/01 13:09:28;;;;;;;13.17;7.83;;;;;;;;;;5063193;28;20261;-77
2021/01/01 13:11:53;;;;;;;11.00;7.47;;;;;;;;;;5069167;28;20201;-77
2021/01/01 13:14:18;;;;;;;9.90;7.00;;;;;;;;;;5065825;28;20275;-76
2021/01/01 13:16:44;;;;;;;13.40;8.43;;;;;;;;;;5067608;28;20653;-76
2021/01/01 13:19:09;;;;;;;9.57;7.50;;;;;;;;;;5066298;28;20255;-76
2021/01/01 13:21:36;;;;;;;13.40;8.07;;;;;;;;;;5064390;28;20640;-76
2021/01/01 13:24:02;;;;;;;12.37;7.53;;;;;;;;;;5065868;28;20287;-76
2021/01/01 13:26:28;;;;;;;8.03;6.17;;;;;;;;;;5059837;28;20174;-76
2021/01/01 13:28:55;;;;;;;7.77;4.67;;;;;;;;;;5066912;28;20238;-76
2021/01/01 13:31:20;;;;;;;5.10;3.87;;;;;;;;;;5065488;28;20198;-76
2021/01/01 13:33:46;;;;;;;4.73;3.00;;;;;;;;;;5056015;28;20201;-77
2021/01/01 13:36:14;;;;;;;4.53;3.03;;;;;;;;;;5063752;28;20272;-76
2021/01/01 13:38:40;;;;;;;4.40;2.67;;;;;;;;;;5061243;28;20283;-77
2021/01/01 13:41:05;;;;;;;4.87;3.77;;;;;;;;;;5067363;28;20255;-76
2021/01/01 13:43:31;;;;;;;5.93;2.37;;;;;;;;;;5066543;28;20201;-77
2021/01/01 13:45:56;;;;;;;5.20;3.07;;;;;;;;;;5062148;28;20177;-77
2021/01/01 13:48:21;;;;;;;3.63;2.80;;;;;;;;;;5059827;28;20268;-77
2021/01/01 13:50:46;;;;;;;4.67;2.87;;;;;;;;;;5068776;28;20347;-77
2021/01/01 13:53:11;;;;;;;5.63;3.37;;;;;;;;;;5070232;28;20196;-76
2021/01/01 13:55:36;;;;;;;5.10;2.60;;;;;;;;;;5075710;28;20169;-76
2021/01/01 13:58:02;;;;;;;4.83;2.57;;;;;;;;;;5076989;28;20193;-76
2021/01/01 14:00:27;;;;;;;3.13;2.80;;;;;;;;;;5065627;28;20207;-77
2021/01/01 14:02:52;;;;;;;5.40;2.63;;;;;;;;;;5068003;28;20189;-77
2021/01/01 14:05:17;;;;;;;2.50;2.20;;;;;;;;;;5059567;28;20180;-77
2021/01/01 14:07:42;;;;;;;3.87;2.27;;;;;;;;;;5065379;28;20634;-77
2021/01/01 14:10:08;;;;;;;4.40;2.43;;;;;;;;;;5064698;28;20242;-77
2021/01/01 14:12:33;;;;;;;3.53;2.17;;;;;;;;;;5063444;28;20183;-77
2021/01/01 14:14:58;;;;;;;4.13;2.30;;;;;;;;;;5059666;28;20193;-77
2021/01/01 14:17:23;;;;;;;3.27;2.47;;;;;;;;;;5065881;28;20231;-77
2021/01/01 14:19:48;;;;;;;6.80;4.23;;;;;;;;;;5069918;28;20177;-77
2021/01/01 14:22:14;;;;;;;4.83;3.50;;;;;;;;;;5063966;28;20659;-75
2021/01/01 14:24:39;;;;;;;3.67;2.30;;;;;;;;;;5061176;28;20196;-77
2021/01/01 14:27:04;;;;;;;3.60;2.30;;;;;;;;;;5064289;28;20222;-75
2021/01/01 14:29:29;;;;;;;3.80;2.17;;;;;;;;;;5068477;28;20558;-77
2021/01/01 14:31:54;;;;;;;3.57;2.70;;;;;;;;;;5066722;28;20181;-75
2021/01/01 14:34:20;;;;;;;3.90;2.53;;;;;;;;;;5057181;28;20302;-75
2021/01/01 14:36:45;;;;;;;2.73;2.47;;;;;;;;;;5062364;28;20195;-77
2021/01/01 14:39:12;;;;;;;4.60;2.87;;;;;;;;;;5064057;28;20292;-75
2021/01/01 14:41:37;;;;;;;4.67;3.43;;;;;;;;;;5060037;28;20234;-77
2021/01/01 14:44:05;;;;;;;2.97;2.50;;;;;;;;;;5062617;28;20690;-77
2021/01/01 14:46:30;;;;;;;5.13;2.63;;;;;;;;;;5057922;28;20166;-77
2021/01/01 14:48:55;;;;;;;5.43;3.07;;;;;;;;;;5062648;28;20839;-78
2021/01/01 14:51:20;;;;;;;4.90;3.67;;;;;;;;;;5063826;28;20203;-75
2021/01/01 14:53:47;;;;;;;4.53;3.63;;;;;;;;;;5063691;28;20190;-76
2021/01/01 14:56:12;;;;;;;6.23;3.37;;;;;;;;;;5059406;28;20185;-75
2021/01/01 14:58:37;;;;;;;6.40;3.60;;;;;;;;;;5063394;28;20204;-76
2021/01/01 15:01:02;;;;;;;5.77;3.87;;;;;;;;;;5063726;28;20323;-75
2021/01/01 15:03:27;;;;;;;4.20;3.43;;;;;;;;;;5056035;28;20185;-76
2021/01/01 15:05:53;;;;;;;7.70;3.80;;;;;;;;;;5064318;28;20773;-76
2021/01/01 15:08:18;;;;;;;6.40;5.07;;;;;;;;;;5063965;28;20189;-76
2021/01/01 15:10:43;;;;;;;8.70;5.63;;;;;;;;;;5066906;28;20176;-75
2021/01/01 15:13:08;;;;;;;9.53;6.67;;;;;;;;;;5069962;28;20212;-76
2021/01/01 15:15:34;;;;;;;11.10;6.80;;;;;;;;;;5069202;28;20195;-75
2021/01/01 15:17:59;;;;;;;8.80;6.90;;;;;;;;;;5065431;28;20205;-75
2021/01/01 15:20:24;;;;;;;8.80;7.00;;;;;;;;;;5070936;28;20168;-77